sensor_id;sensor_type;location;lat;lon;timestamp;P1;durP1;ratioP1;P2;durP2;ratioP2
6529;SDS011;3298;42.688;23.366;2022-10-16T00:00:37;8.30;;;6.77;;
6529;SDS011;3298;42.688;23.366;2022-10-16T00:03:05;10.57;;;7.07;;
6529;SDS011;3298;42.688;23.366;2022-10-16T00:05:32;8.20;;;7.37;;
6529;SDS011;3298;42.688;23.366;2022-10-16T00:08:03;9.20;;;7.73;;
6529;SDS011;3298;42.688;23.366;2022-10-16T00:10:30;7.97;;;7.10;;
6529;SDS011;3298;42.688;23.366;2022-10-16T00:12:59;8.60;;;6.30;;
6529;SDS011;3298;42.688;23.366;2022-10-16T00:15:26;8.20;;;7.10;;
6529;SDS011;3298;42.688;23.366;2022-10-16T00:17:52;8.87;;;7.60;;
6529;SDS011;3298;42.688;23.366;2022-10-16T00:20:19;8.57;;;5.80;;
6529;SDS011;3298;42.688;23.366;2022-10-16T00:22:46;6.37;;;5.73;;
6529;SDS011;3298;42.688;23.366;2022-10-16T00:25:13;7.13;;;6.03;;
6529;SDS011;3298;42.688;23.366;2022-10-16T00:27:39;6.07;;;5.33;;
6529;SDS011;3298;42.688;23.366;2022-10-16T00:30:08;10.53;;;6.47;;
6529;SDS011;3298;42.688;23.366;2022-10-16T00:32:35;6.53;;;5.93;;
6529;SDS011;3298;42.688;23.366;2022-10-16T00:35:02;7.40;;;5.83;;
6529;SDS011;3298;42.688;23.366;2022-10-16T00:37:29;5.83;;;5.43;;
6529;SDS011;3298;42.688;23.366;2022-10-16T00:39:56;5.87;;;5.27;;
6529;SDS011;3298;42.688;23.366;2022-10-16T00:42:23;7.27;;;6.00;;
6529;SDS011;3298;42.688;23.366;2022-10-16T00:44:51;6.17;;;5.67;;
6529;SDS011;3298;42.688;23.366;2022-10-16T00:47:22;9.43;;;5.73;;
6529;SDS011;3298;42.688;23.366;2022-10-16T00:49:53;7.30;;;5.10;;
6529;SDS011;3298;42.688;23.366;2022-10-16T00:52:24;6.67;;;5.47;;
6529;SDS011;3298;42.688;23.366;2022-10-16T00:54:51;7.07;;;5.40;;
6529;SDS011;3298;42.688;23.366;2022-10-16T00:57:19;5.97;;;5.47;;
6529;SDS011;3298;42.688;23.366;2022-10-16T00:59:46;5.03;;;4.73;;
6529;SDS011;3298;42.688;23.366;2022-10-16T01:02:14;6.10;;;5.57;;
6529;SDS011;3298;42.688;23.366;2022-10-16T01:04:44;6.00;;;5.40;;
6529;SDS011;3298;42.688;23.366;2022-10-16T01:07:14;6.03;;;5.53;;
6529;SDS011;3298;42.688;23.366;2022-10-16T01:09:52;6.30;;;5.73;;
6529;SDS011;3298;42.688;23.366;2022-10-16T01:12:30;6.37;;;5.80;;
6529;SDS011;3298;42.688;23.366;2022-10-16T01:15:06;7.27;;;5.50;;
6529;SDS011;3298;42.688;23.366;2022-10-16T01:17:40;6.20;;;5.60;;
6529;SDS011;3298;42.688;23.366;2022-10-16T01:20:14;6.40;;;5.87;;
6529;SDS011;3298;42.688;23.366;2022-10-16T01:22:49;7.40;;;6.03;;
6529;SDS011;3298;42.688;23.366;2022-10-16T01:25:30;9.53;;;6.03;;
6529;SDS011;3298;42.688;23.366;2022-10-16T01:28:15;5.57;;;5.07;;
6529;SDS011;3298;42.688;23.366;2022-10-16T01:30:45;8.10;;;5.70;;
6529;SDS011;3298;42.688;23.366;2022-10-16T01:33:14;8.97;;;5.67;;
6529;SDS011;3298;42.688;23.366;2022-10-16T01:35:46;6.20;;;5.70;;
6529;SDS011;3298;42.688;23.366;2022-10-16T01:38:19;7.80;;;6.07;;
6529;SDS011;3298;42.688;23.366;2022-10-16T01:40:52;8.87;;;5.73;;
6529;SDS011;3298;42.688;23.366;2022-10-16T01:43:26;7.40;;;5.10;;
6529;SDS011;3298;42.688;23.366;2022-10-16T01:45:59;5.73;;;5.27;;
6529;SDS011;3298;42.688;23.366;2022-10-16T01:48:27;7.77;;;5.87;;
6529;SDS011;3298;42.688;23.366;2022-10-16T01:50:59;9.80;;;6.43;;
6529;SDS011;3298;42.688;23.366;2022-10-16T01:53:30;6.57;;;5.83;;
6529;SDS011;3298;42.688;23.366;2022-10-16T01:55:57;7.10;;;6.23;;
6529;SDS011;3298;42.688;23.366;2022-10-16T01:58:27;5.43;;;5.03;;
6529;SDS011;3298;42.688;23.366;2022-10-16T02:00:59;5.93;;;5.37;;
6529;SDS011;3298;42.688;23.366;2022-10-16T02:03:28;6.97;;;5.50;;
6529;SDS011;3298;42.688;23.366;2022-10-16T02:05:56;6.77;;;6.07;;
6529;SDS011;3298;42.688;23.366;2022-10-16T02:08:24;8.23;;;5.63;;
6529;SDS011;3298;42.688;23.366;2022-10-16T02:10:54;7.70;;;6.37;;
6529;SDS011;3298;42.688;23.366;2022-10-16T02:13:22;7.20;;;6.20;;
6529;SDS011;3298;42.688;23.366;2022-10-16T02:15:55;8.57;;;6.67;;
6529;SDS011;3298;42.688;23.366;2022-10-16T02:18:22;11.87;;;7.93;;
6529;SDS011;3298;42.688;23.366;2022-10-16T02:20:52;12.47;;;9.67;;
6529;SDS011;3298;42.688;23.366;2022-10-16T02:23:24;17.43;;;10.13;;
6529;SDS011;3298;42.688;23.366;2022-10-16T02:25:59;16.77;;;9.73;;
6529;SDS011;3298;42.688;23.366;2022-10-16T02:28:33;14.70;;;9.70;;
6529;SDS011;3298;42.688;23.366;2022-10-16T02:31:08;14.83;;;9.33;;
6529;SDS011;3298;42.688;23.366;2022-10-16T02:33:39;11.17;;;8.13;;
6529;SDS011;3298;42.688;23.366;2022-10-16T02:36:08;12.87;;;7.57;;
6529;SDS011;3298;42.688;23.366;2022-10-16T02:38:36;13.80;;;8.33;;
6529;SDS011;3298;42.688;23.366;2022-10-16T02:41:05;18.17;;;7.77;;
6529;SDS011;3298;42.688;23.366;2022-10-16T02:43:32;10.47;;;6.67;;
6529;SDS011;3298;42.688;23.366;2022-10-16T02:45:59;10.13;;;7.20;;
6529;SDS011;3298;42.688;23.366;2022-10-16T02:48:27;9.30;;;7.17;;
6529;SDS011;3298;42.688;23.366;2022-10-16T02:50:54;8.50;;;6.27;;
6529;SDS011;3298;42.688;23.366;2022-10-16T02:53:22;6.60;;;5.97;;
6529;SDS011;3298;42.688;23.366;2022-10-16T02:55:49;6.57;;;5.90;;
6529;SDS011;3298;42.688;23.366;2022-10-16T02:58:15;9.30;;;6.03;;
6529;SDS011;3298;42.688;23.366;2022-10-16T03:00:42;6.13;;;5.53;;
6529;SDS011;3298;42.688;23.366;2022-10-16T03:03:09;8.50;;;5.17;;
6529;SDS011;3298;42.688;23.366;2022-10-16T03:05:37;6.90;;;5.97;;
6529;SDS011;3298;42.688;23.366;2022-10-16T03:08:04;9.50;;;6.37;;
6529;SDS011;3298;42.688;23.366;2022-10-16T03:10:31;8.13;;;6.20;;
6529;SDS011;3298;42.688;23.366;2022-10-16T03:12:58;9.60;;;6.37;;
6529;SDS011;3298;42.688;23.366;2022-10-16T03:15:24;7.50;;;6.20;;
6529;SDS011;3298;42.688;23.366;2022-10-16T03:17:53;10.57;;;6.07;;
6529;SDS011;3298;42.688;23.366;2022-10-16T03:20:20;9.10;;;6.03;;
6529;SDS011;3298;42.688;23.366;2022-10-16T03:22:48;7.70;;;6.03;;
6529;SDS011;3298;42.688;23.366;2022-10-16T03:25:14;11.67;;;5.97;;
6529;SDS011;3298;42.688;23.366;2022-10-16T03:27:41;7.73;;;5.50;;
6529;SDS011;3298;42.688;23.366;2022-10-16T03:30:09;5.97;;;5.40;;
6529;SDS011;3298;42.688;23.366;2022-10-16T03:32:36;7.43;;;5.87;;
6529;SDS011;3298;42.688;23.366;2022-10-16T03:35:03;7.57;;;5.50;;
6529;SDS011;3298;42.688;23.366;2022-10-16T03:37:30;8.27;;;6.00;;
6529;SDS011;3298;42.688;23.366;2022-10-16T03:39:58;6.50;;;5.20;;
6529;SDS011;3298;42.688;23.366;2022-10-16T03:42:25;6.40;;;5.60;;
6529;SDS011;3298;42.688;23.366;2022-10-16T03:44:52;6.63;;;5.43;;
6529;SDS011;3298;42.688;23.366;2022-10-16T03:47:19;7.47;;;4.70;;
6529;SDS011;3298;42.688;23.366;2022-10-16T03:49:48;7.00;;;4.87;;
6529;SDS011;3298;42.688;23.366;2022-10-16T03:52:15;4.37;;;4.07;;
6529;SDS011;3298;42.688;23.366;2022-10-16T03:54:42;6.53;;;4.43;;
6529;SDS011;3298;42.688;23.366;2022-10-16T03:57:10;4.57;;;4.17;;
6529;SDS011;3298;42.688;23.366;2022-10-16T03:59:37;6.17;;;4.73;;
6529;SDS011;3298;42.688;23.366;2022-10-16T04:02:04;5.00;;;4.57;;
6529;SDS011;3298;42.688;23.366;2022-10-16T04:04:30;8.40;;;4.67;;
6529;SDS011;3298;42.688;23.366;2022-10-16T04:06:57;5.50;;;4.83;;
6529;SDS011;3298;42.688;23.366;2022-10-16T04:09:24;5.97;;;5.37;;
6529;SDS011;3298;42.688;23.366;2022-10-16T04:11:51;9.57;;;5.13;;
6529;SDS011;3298;42.688;23.366;2022-10-16T04:14:19;11.43;;;6.50;;
6529;SDS011;3298;42.688;23.366;2022-10-16T04:16:46;6.20;;;5.57;;
6529;SDS011;3298;42.688;23.366;2022-10-16T04:19:12;7.07;;;5.70;;
6529;SDS011;3298;42.688;23.366;2022-10-16T04:21:39;5.73;;;5.23;;
6529;SDS011;3298;42.688;23.366;2022-10-16T04:24:06;6.53;;;5.23;;
6529;SDS011;3298;42.688;23.366;2022-10-16T04:26:33;6.27;;;5.23;;
6529;SDS011;3298;42.688;23.366;2022-10-16T04:28:59;6.23;;;5.43;;
6529;SDS011;3298;42.688;23.366;2022-10-16T04:31:28;5.30;;;4.80;;
6529;SDS011;3298;42.688;23.366;2022-10-16T04:33:54;7.50;;;6.17;;
6529;SDS011;3298;42.688;23.366;2022-10-16T04:36:21;5.53;;;5.10;;
6529;SDS011;3298;42.688;23.366;2022-10-16T04:38:48;5.93;;;5.33;;
6529;SDS011;3298;42.688;23.366;2022-10-16T04:41:15;9.40;;;6.63;;
6529;SDS011;3298;42.688;23.366;2022-10-16T04:43:41;12.20;;;6.30;;
6529;SDS011;3298;42.688;23.366;2022-10-16T04:46:08;7.03;;;6.33;;
6529;SDS011;3298;42.688;23.366;2022-10-16T04:48:37;10.23;;;7.33;;
6529;SDS011;3298;42.688;23.366;2022-10-16T04:51:03;9.93;;;8.63;;
6529;SDS011;3298;42.688;23.366;2022-10-16T04:53:30;12.20;;;9.20;;
6529;SDS011;3298;42.688;23.366;2022-10-16T04:55:58;8.30;;;7.53;;
6529;SDS011;3298;42.688;23.366;2022-10-16T04:58:25;8.37;;;7.30;;
6529;SDS011;3298;42.688;23.366;2022-10-16T05:00:52;8.10;;;7.33;;
6529;SDS011;3298;42.688;23.366;2022-10-16T05:03:19;6.47;;;5.97;;
6529;SDS011;3298;42.688;23.366;2022-10-16T05:05:47;6.30;;;5.53;;
6529;SDS011;3298;42.688;23.366;2022-10-16T05:08:14;9.80;;;5.60;;
6529;SDS011;3298;42.688;23.366;2022-10-16T05:10:43;5.80;;;5.33;;
6529;SDS011;3298;42.688;23.366;2022-10-16T05:13:10;6.23;;;5.60;;
6529;SDS011;3298;42.688;23.366;2022-10-16T05:15:38;5.90;;;5.40;;
6529;SDS011;3298;42.688;23.366;2022-10-16T05:18:05;15.97;;;6.30;;
6529;SDS011;3298;42.688;23.366;2022-10-16T05:20:32;7.77;;;5.83;;
6529;SDS011;3298;42.688;23.366;2022-10-16T05:23:01;11.60;;;6.20;;
6529;SDS011;3298;42.688;23.366;2022-10-16T05:25:27;10.93;;;6.47;;
6529;SDS011;3298;42.688;23.366;2022-10-16T05:27:54;9.23;;;5.70;;
6529;SDS011;3298;42.688;23.366;2022-10-16T05:30:21;6.87;;;6.00;;
6529;SDS011;3298;42.688;23.366;2022-10-16T05:32:48;6.27;;;5.70;;
6529;SDS011;3298;42.688;23.366;2022-10-16T05:35:16;12.30;;;6.00;;
6529;SDS011;3298;42.688;23.366;2022-10-16T05:37:44;6.90;;;5.00;;
6529;SDS011;3298;42.688;23.366;2022-10-16T05:40:12;9.90;;;5.40;;
6529;SDS011;3298;42.688;23.366;2022-10-16T05:42:41;6.90;;;6.23;;
6529;SDS011;3298;42.688;23.366;2022-10-16T05:45:08;7.37;;;5.03;;
6529;SDS011;3298;42.688;23.366;2022-10-16T05:47:36;8.13;;;5.10;;
6529;SDS011;3298;42.688;23.366;2022-10-16T05:50:04;8.50;;;5.77;;
6529;SDS011;3298;42.688;23.366;2022-10-16T05:52:32;7.73;;;6.13;;
6529;SDS011;3298;42.688;23.366;2022-10-16T05:54:59;6.30;;;5.77;;
6529;SDS011;3298;42.688;23.366;2022-10-16T05:57:28;6.03;;;5.43;;
6529;SDS011;3298;42.688;23.366;2022-10-16T05:59:55;6.37;;;5.77;;
6529;SDS011;3298;42.688;23.366;2022-10-16T06:02:22;12.67;;;5.97;;
6529;SDS011;3298;42.688;23.366;2022-10-16T06:04:49;10.03;;;5.60;;
6529;SDS011;3298;42.688;23.366;2022-10-16T06:07:18;6.10;;;5.60;;
6529;SDS011;3298;42.688;23.366;2022-10-16T06:09:47;6.60;;;5.93;;
6529;SDS011;3298;42.688;23.366;2022-10-16T06:12:14;6.47;;;5.90;;
6529;SDS011;3298;42.688;23.366;2022-10-16T06:14:43;10.90;;;7.57;;
6529;SDS011;3298;42.688;23.366;2022-10-16T06:17:11;17.70;;;8.57;;
6529;SDS011;3298;42.688;23.366;2022-10-16T06:19:40;16.37;;;9.17;;
6529;SDS011;3298;42.688;23.366;2022-10-16T06:22:07;11.70;;;8.87;;
6529;SDS011;3298;42.688;23.366;2022-10-16T06:24:34;10.17;;;8.70;;
6529;SDS011;3298;42.688;23.366;2022-10-16T06:27:00;10.80;;;9.67;;
6529;SDS011;3298;42.688;23.366;2022-10-16T06:29:28;13.57;;;9.53;;
6529;SDS011;3298;42.688;23.366;2022-10-16T06:31:57;13.13;;;9.43;;
6529;SDS011;3298;42.688;23.366;2022-10-16T06:34:23;13.60;;;9.67;;
6529;SDS011;3298;42.688;23.366;2022-10-16T06:36:50;14.20;;;10.57;;
6529;SDS011;3298;42.688;23.366;2022-10-16T06:39:17;15.50;;;11.50;;
6529;SDS011;3298;42.688;23.366;2022-10-16T06:41:44;13.77;;;10.20;;
6529;SDS011;3298;42.688;23.366;2022-10-16T06:44:10;16.03;;;10.10;;
6529;SDS011;3298;42.688;23.366;2022-10-16T06:46:37;18.37;;;10.20;;
6529;SDS011;3298;42.688;23.366;2022-10-16T06:49:05;11.53;;;9.23;;
6529;SDS011;3298;42.688;23.366;2022-10-16T06:51:32;9.27;;;8.20;;
6529;SDS011;3298;42.688;23.366;2022-10-16T06:54:01;13.03;;;8.73;;
6529;SDS011;3298;42.688;23.366;2022-10-16T06:56:28;8.23;;;7.47;;
6529;SDS011;3298;42.688;23.366;2022-10-16T06:58:56;7.80;;;7.00;;
6529;SDS011;3298;42.688;23.366;2022-10-16T07:01:23;6.33;;;5.73;;
6529;SDS011;3298;42.688;23.366;2022-10-16T07:03:50;12.93;;;6.87;;
6529;SDS011;3298;42.688;23.366;2022-10-16T07:06:20;9.27;;;6.57;;
6529;SDS011;3298;42.688;23.366;2022-10-16T07:08:48;7.13;;;5.63;;
6529;SDS011;3298;42.688;23.366;2022-10-16T07:11:16;7.10;;;6.43;;
6529;SDS011;3298;42.688;23.366;2022-10-16T07:13:44;7.20;;;5.93;;
6529;SDS011;3298;42.688;23.366;2022-10-16T07:16:12;6.27;;;5.67;;
6529;SDS011;3298;42.688;23.366;2022-10-16T07:18:41;6.23;;;5.63;;
6529;SDS011;3298;42.688;23.366;2022-10-16T07:21:11;5.07;;;4.77;;
6529;SDS011;3298;42.688;23.366;2022-10-16T07:23:40;6.40;;;5.77;;
6529;SDS011;3298;42.688;23.366;2022-10-16T07:26:08;6.30;;;5.80;;
6529;SDS011;3298;42.688;23.366;2022-10-16T07:28:35;5.70;;;5.27;;
6529;SDS011;3298;42.688;23.366;2022-10-16T07:31:03;6.50;;;6.00;;
6529;SDS011;3298;42.688;23.366;2022-10-16T07:33:31;6.23;;;5.73;;
6529;SDS011;3298;42.688;23.366;2022-10-16T07:35:58;9.73;;;6.07;;
6529;SDS011;3298;42.688;23.366;2022-10-16T07:38:25;4.97;;;4.47;;
6529;SDS011;3298;42.688;23.366;2022-10-16T07:41:02;7.90;;;4.63;;
6529;SDS011;3298;42.688;23.366;2022-10-16T07:43:30;4.53;;;4.30;;
6529;SDS011;3298;42.688;23.366;2022-10-16T07:45:58;6.50;;;5.10;;
6529;SDS011;3298;42.688;23.366;2022-10-16T07:48:26;5.77;;;5.27;;
6529;SDS011;3298;42.688;23.366;2022-10-16T07:50:56;9.53;;;5.03;;
6529;SDS011;3298;42.688;23.366;2022-10-16T07:53:23;6.37;;;4.80;;
6529;SDS011;3298;42.688;23.366;2022-10-16T07:55:50;4.90;;;4.50;;
6529;SDS011;3298;42.688;23.366;2022-10-16T07:58:18;8.50;;;7.33;;
6529;SDS011;3298;42.688;23.366;2022-10-16T08:00:45;6.50;;;6.00;;
6529;SDS011;3298;42.688;23.366;2022-10-16T08:03:12;7.37;;;6.70;;
6529;SDS011;3298;42.688;23.366;2022-10-16T08:05:39;6.13;;;5.53;;
6529;SDS011;3298;42.688;23.366;2022-10-16T08:08:06;6.10;;;5.60;;
6529;SDS011;3298;42.688;23.366;2022-10-16T08:10:32;7.70;;;6.63;;
6529;SDS011;3298;42.688;23.366;2022-10-16T08:12:59;8.47;;;6.17;;
6529;SDS011;3298;42.688;23.366;2022-10-16T08:15:28;12.80;;;10.77;;
6529;SDS011;3298;42.688;23.366;2022-10-16T08:17:55;13.57;;;9.50;;
6529;SDS011;3298;42.688;23.366;2022-10-16T08:20:23;11.20;;;8.07;;
6529;SDS011;3298;42.688;23.366;2022-10-16T08:22:51;6.43;;;5.93;;
6529;SDS011;3298;42.688;23.366;2022-10-16T08:25:19;7.20;;;6.30;;
6529;SDS011;3298;42.688;23.366;2022-10-16T08:27:46;5.27;;;4.87;;
6529;SDS011;3298;42.688;23.366;2022-10-16T08:30:13;6.23;;;4.50;;
6529;SDS011;3298;42.688;23.366;2022-10-16T08:32:41;6.03;;;5.53;;
6529;SDS011;3298;42.688;23.366;2022-10-16T08:35:08;5.67;;;4.33;;
6529;SDS011;3298;42.688;23.366;2022-10-16T08:37:35;5.30;;;4.80;;
6529;SDS011;3298;42.688;23.366;2022-10-16T08:40:03;5.47;;;4.30;;
6529;SDS011;3298;42.688;23.366;2022-10-16T08:42:33;3.70;;;3.50;;
6529;SDS011;3298;42.688;23.366;2022-10-16T08:45:13;6.17;;;4.23;;
6529;SDS011;3298;42.688;23.366;2022-10-16T08:47:51;3.67;;;3.30;;
6529;SDS011;3298;42.688;23.366;2022-10-16T08:50:27;4.27;;;3.87;;
6529;SDS011;3298;42.688;23.366;2022-10-16T08:52:56;3.57;;;3.33;;
6529;SDS011;3298;42.688;23.366;2022-10-16T08:55:28;3.17;;;3.07;;
6529;SDS011;3298;42.688;23.366;2022-10-16T08:57:58;3.20;;;2.60;;
6529;SDS011;3298;42.688;23.366;2022-10-16T09:00:26;3.17;;;2.57;;
6529;SDS011;3298;42.688;23.366;2022-10-16T09:02:57;2.10;;;2.00;;
6529;SDS011;3298;42.688;23.366;2022-10-16T09:05:37;2.87;;;2.33;;
6529;SDS011;3298;42.688;23.366;2022-10-16T09:08:16;2.50;;;2.07;;
6529;SDS011;3298;42.688;23.366;2022-10-16T09:10:52;4.27;;;2.90;;
6529;SDS011;3298;42.688;23.366;2022-10-16T09:13:27;3.10;;;2.90;;
6529;SDS011;3298;42.688;23.366;2022-10-16T09:15:59;2.67;;;2.47;;
6529;SDS011;3298;42.688;23.366;2022-10-16T09:18:40;5.20;;;3.10;;
6529;SDS011;3298;42.688;23.366;2022-10-16T09:21:19;2.37;;;2.27;;
6529;SDS011;3298;42.688;23.366;2022-10-16T09:23:49;3.20;;;2.10;;
6529;SDS011;3298;42.688;23.366;2022-10-16T09:26:16;3.30;;;3.10;;
6529;SDS011;3298;42.688;23.366;2022-10-16T09:28:44;4.10;;;2.70;;
6529;SDS011;3298;42.688;23.366;2022-10-16T09:31:18;2.23;;;2.13;;
6529;SDS011;3298;42.688;23.366;2022-10-16T09:33:48;3.70;;;2.33;;
6529;SDS011;3298;42.688;23.366;2022-10-16T09:36:19;3.53;;;2.70;;
6529;SDS011;3298;42.688;23.366;2022-10-16T09:38:47;2.43;;;2.17;;
6529;SDS011;3298;42.688;23.366;2022-10-16T09:41:16;2.77;;;2.57;;
6529;SDS011;3298;42.688;23.366;2022-10-16T09:43:49;2.57;;;2.40;;
6529;SDS011;3298;42.688;23.366;2022-10-16T09:46:21;2.90;;;2.60;;
6529;SDS011;3298;42.688;23.366;2022-10-16T09:48:54;2.53;;;2.03;;
6529;SDS011;3298;42.688;23.366;2022-10-16T09:51:23;2.50;;;2.30;;
6529;SDS011;3298;42.688;23.366;2022-10-16T09:53:54;3.43;;;3.23;;
6529;SDS011;3298;42.688;23.366;2022-10-16T09:56:23;4.23;;;2.67;;
6529;SDS011;3298;42.688;23.366;2022-10-16T09:58:51;2.77;;;2.57;;
6529;SDS011;3298;42.688;23.366;2022-10-16T10:01:20;2.40;;;2.23;;
6529;SDS011;3298;42.688;23.366;2022-10-16T10:03:49;2.60;;;2.50;;
6529;SDS011;3298;42.688;23.366;2022-10-16T10:06:21;2.23;;;2.13;;
6529;SDS011;3298;42.688;23.366;2022-10-16T10:08:57;2.53;;;2.33;;
6529;SDS011;3298;42.688;23.366;2022-10-16T10:11:39;3.03;;;2.50;;
6529;SDS011;3298;42.688;23.366;2022-10-16T10:14:22;9.07;;;2.63;;
6529;SDS011;3298;42.688;23.366;2022-10-16T10:16:51;2.40;;;2.30;;
6529;SDS011;3298;42.688;23.366;2022-10-16T10:19:19;2.83;;;2.60;;
6529;SDS011;3298;42.688;23.366;2022-10-16T10:21:49;2.40;;;2.23;;
6529;SDS011;3298;42.688;23.366;2022-10-16T10:24:18;3.00;;;2.80;;
6529;SDS011;3298;42.688;23.366;2022-10-16T10:26:50;2.60;;;2.40;;
6529;SDS011;3298;42.688;23.366;2022-10-16T10:29:30;4.57;;;2.63;;
6529;SDS011;3298;42.688;23.366;2022-10-16T10:32:09;2.70;;;2.50;;
6529;SDS011;3298;42.688;23.366;2022-10-16T10:34:57;3.70;;;2.37;;
6529;SDS011;3298;42.688;23.366;2022-10-16T10:37:37;3.30;;;3.10;;
6529;SDS011;3298;42.688;23.366;2022-10-16T10:40:18;2.73;;;2.53;;
6529;SDS011;3298;42.688;23.366;2022-10-16T10:42:55;4.30;;;2.60;;
6529;SDS011;3298;42.688;23.366;2022-10-16T10:45:32;2.90;;;2.67;;
6529;SDS011;3298;42.688;23.366;2022-10-16T10:48:14;2.13;;;2.03;;
6529;SDS011;3298;42.688;23.366;2022-10-16T10:50:56;2.17;;;2.07;;
6529;SDS011;3298;42.688;23.366;2022-10-16T10:53:35;3.73;;;2.17;;
6529;SDS011;3298;42.688;23.366;2022-10-16T10:56:14;2.65;;;2.22;;
6529;SDS011;3298;42.688;23.366;2022-10-16T11:01:47;2.20;;;2.08;;
6529;SDS011;3298;42.688;23.366;2022-10-16T11:04:29;2.03;;;1.92;;
6529;SDS011;3298;42.688;23.366;2022-10-16T11:07:04;4.07;;;2.92;;
6529;SDS011;3298;42.688;23.366;2022-10-16T11:09:36;3.23;;;2.33;;
6529;SDS011;3298;42.688;23.366;2022-10-16T11:12:09;2.87;;;2.40;;
6529;SDS011;3298;42.688;23.366;2022-10-16T11:14:42;2.17;;;2.00;;
6529;SDS011;3298;42.688;23.366;2022-10-16T11:17:17;2.77;;;2.57;;
6529;SDS011;3298;42.688;23.366;2022-10-16T11:19:51;1.80;;;1.70;;
6529;SDS011;3298;42.688;23.366;2022-10-16T11:22:23;2.83;;;2.63;;
6529;SDS011;3298;42.688;23.366;2022-10-16T11:24:59;1.90;;;1.80;;
6529;SDS011;3298;42.688;23.366;2022-10-16T11:27:34;2.53;;;2.43;;
6529;SDS011;3298;42.688;23.366;2022-10-16T11:30:12;3.67;;;2.40;;
6529;SDS011;3298;42.688;23.366;2022-10-16T11:32:44;2.93;;;1.87;;
6529;SDS011;3298;42.688;23.366;2022-10-16T11:35:21;1.93;;;1.83;;
6529;SDS011;3298;42.688;23.366;2022-10-16T11:37:52;2.90;;;2.20;;
6529;SDS011;3298;42.688;23.366;2022-10-16T11:40:25;2.07;;;1.97;;
6529;SDS011;3298;42.688;23.366;2022-10-16T11:43:00;2.03;;;1.93;;
6529;SDS011;3298;42.688;23.366;2022-10-16T11:45:33;4.00;;;2.87;;
6529;SDS011;3298;42.688;23.366;2022-10-16T11:48:08;1.93;;;1.83;;
6529;SDS011;3298;42.688;23.366;2022-10-16T11:50:48;2.70;;;2.17;;
6529;SDS011;3298;42.688;23.366;2022-10-16T11:53:21;2.90;;;2.47;;
6529;SDS011;3298;42.688;23.366;2022-10-16T11:55:59;2.07;;;1.97;;
6529;SDS011;3298;42.688;23.366;2022-10-16T11:58:26;1.63;;;1.53;;
6529;SDS011;3298;42.688;23.366;2022-10-16T12:00:59;1.97;;;1.87;;
6529;SDS011;3298;42.688;23.366;2022-10-16T12:03:40;2.97;;;2.60;;
6529;SDS011;3298;42.688;23.366;2022-10-16T12:06:15;2.53;;;2.13;;
6529;SDS011;3298;42.688;23.366;2022-10-16T12:08:57;1.97;;;1.87;;
6529;SDS011;3298;42.688;23.366;2022-10-16T12:11:35;2.27;;;2.07;;
6529;SDS011;3298;42.688;23.366;2022-10-16T12:19:58;2.10;;;2.00;;
6529;SDS011;3298;42.688;23.366;2022-10-16T12:22:27;2.03;;;1.93;;
6529;SDS011;3298;42.688;23.366;2022-10-16T12:24:56;2.27;;;1.90;;
6529;SDS011;3298;42.688;23.366;2022-10-16T12:27:27;2.07;;;1.97;;
6529;SDS011;3298;42.688;23.366;2022-10-16T12:29:57;2.17;;;1.93;;
6529;SDS011;3298;42.688;23.366;2022-10-16T12:32:30;1.90;;;1.80;;
6529;SDS011;3298;42.688;23.366;2022-10-16T12:34:59;2.30;;;2.10;;
6529;SDS011;3298;42.688;23.366;2022-10-16T12:37:29;3.67;;;2.00;;
6529;SDS011;3298;42.688;23.366;2022-10-16T12:39:59;2.00;;;1.90;;
6529;SDS011;3298;42.688;23.366;2022-10-16T12:42:40;2.13;;;1.93;;
6529;SDS011;3298;42.688;23.366;2022-10-16T12:45:21;3.93;;;2.10;;
6529;SDS011;3298;42.688;23.366;2022-10-16T12:47:52;2.90;;;2.70;;
6529;SDS011;3298;42.688;23.366;2022-10-16T12:50:25;4.40;;;1.87;;
6529;SDS011;3298;42.688;23.366;2022-10-16T12:52:55;4.43;;;2.20;;
6529;SDS011;3298;42.688;23.366;2022-10-16T12:55:23;2.77;;;1.70;;
6529;SDS011;3298;42.688;23.366;2022-10-16T13:01:10;2.33;;;2.20;;
6529;SDS011;3298;42.688;23.366;2022-10-16T13:06:43;1.47;;;1.43;;
6529;SDS011;3298;42.688;23.366;2022-10-16T13:09:20;1.97;;;1.77;;
6529;SDS011;3298;42.688;23.366;2022-10-16T13:15:11;2.50;;;2.13;;
6529;SDS011;3298;42.688;23.366;2022-10-16T13:18:03;2.97;;;2.13;;
6529;SDS011;3298;42.688;23.366;2022-10-16T13:20:44;2.20;;;2.10;;
6529;SDS011;3298;42.688;23.366;2022-10-16T13:23:23;2.20;;;1.60;;
6529;SDS011;3298;42.688;23.366;2022-10-16T13:26:03;4.30;;;2.00;;
6529;SDS011;3298;42.688;23.366;2022-10-16T13:28:44;1.80;;;1.70;;
6529;SDS011;3298;42.688;23.366;2022-10-16T13:31:13;1.80;;;1.40;;
6529;SDS011;3298;42.688;23.366;2022-10-16T13:33:47;1.90;;;1.80;;
6529;SDS011;3298;42.688;23.366;2022-10-16T13:36:20;2.30;;;1.70;;
6529;SDS011;3298;42.688;23.366;2022-10-16T13:38:59;5.30;;;1.70;;
6529;SDS011;3298;42.688;23.366;2022-10-16T13:41:33;2.57;;;1.87;;
6529;SDS011;3298;42.688;23.366;2022-10-16T13:43:59;1.93;;;1.83;;
6529;SDS011;3298;42.688;23.366;2022-10-16T13:46:27;2.13;;;1.73;;
6529;SDS011;3298;42.688;23.366;2022-10-16T13:49:02;1.73;;;1.63;;
6529;SDS011;3298;42.688;23.366;2022-10-16T13:51:30;2.70;;;1.67;;
6529;SDS011;3298;42.688;23.366;2022-10-16T13:53:59;1.60;;;1.50;;
6529;SDS011;3298;42.688;23.366;2022-10-16T13:56:26;2.17;;;1.90;;
6529;SDS011;3298;42.688;23.366;2022-10-16T13:58:59;2.83;;;2.07;;
6529;SDS011;3298;42.688;23.366;2022-10-16T14:01:28;1.87;;;1.73;;
6529;SDS011;3298;42.688;23.366;2022-10-16T14:04:02;1.90;;;1.80;;
6529;SDS011;3298;42.688;23.366;2022-10-16T14:06:31;1.53;;;1.43;;
6529;SDS011;3298;42.688;23.366;2022-10-16T14:09:04;1.30;;;1.30;;
6529;SDS011;3298;42.688;23.366;2022-10-16T14:11:34;3.67;;;1.80;;
6529;SDS011;3298;42.688;23.366;2022-10-16T14:14:14;1.80;;;1.70;;
6529;SDS011;3298;42.688;23.366;2022-10-16T14:16:42;1.70;;;1.60;;
6529;SDS011;3298;42.688;23.366;2022-10-16T14:19:17;1.93;;;1.83;;
6529;SDS011;3298;42.688;23.366;2022-10-16T14:21:48;1.93;;;1.83;;
6529;SDS011;3298;42.688;23.366;2022-10-16T14:24:22;2.57;;;2.37;;
6529;SDS011;3298;42.688;23.366;2022-10-16T14:26:52;2.70;;;2.60;;
6529;SDS011;3298;42.688;23.366;2022-10-16T14:29:21;5.07;;;2.00;;
6529;SDS011;3298;42.688;23.366;2022-10-16T14:31:56;2.20;;;1.80;;
6529;SDS011;3298;42.688;23.366;2022-10-16T14:34:26;4.80;;;1.70;;
6529;SDS011;3298;42.688;23.366;2022-10-16T14:36:55;2.60;;;2.30;;
6529;SDS011;3298;42.688;23.366;2022-10-16T14:39:25;3.53;;;3.33;;
6529;SDS011;3298;42.688;23.366;2022-10-16T14:41:54;3.20;;;3.00;;
6529;SDS011;3298;42.688;23.366;2022-10-16T14:44:26;5.53;;;2.40;;
6529;SDS011;3298;42.688;23.366;2022-10-16T14:46:55;1.87;;;1.77;;
6529;SDS011;3298;42.688;23.366;2022-10-16T14:49:26;2.27;;;1.70;;
6529;SDS011;3298;42.688;23.366;2022-10-16T14:51:53;3.03;;;2.10;;
6529;SDS011;3298;42.688;23.366;2022-10-16T14:54:20;2.10;;;2.00;;
6529;SDS011;3298;42.688;23.366;2022-10-16T14:56:47;2.23;;;2.07;;
6529;SDS011;3298;42.688;23.366;2022-10-16T14:59:17;1.83;;;1.73;;
6529;SDS011;3298;42.688;23.366;2022-10-16T15:01:48;1.43;;;1.33;;
6529;SDS011;3298;42.688;23.366;2022-10-16T15:04:15;1.60;;;1.50;;
6529;SDS011;3298;42.688;23.366;2022-10-16T15:06:44;2.67;;;1.70;;
6529;SDS011;3298;42.688;23.366;2022-10-16T15:09:11;3.33;;;1.93;;
6529;SDS011;3298;42.688;23.366;2022-10-16T15:11:38;2.03;;;1.93;;
6529;SDS011;3298;42.688;23.366;2022-10-16T15:14:05;1.80;;;1.70;;
6529;SDS011;3298;42.688;23.366;2022-10-16T15:16:32;3.80;;;2.70;;
6529;SDS011;3298;42.688;23.366;2022-10-16T15:18:59;2.60;;;2.40;;
6529;SDS011;3298;42.688;23.366;2022-10-16T15:21:26;3.63;;;2.77;;
6529;SDS011;3298;42.688;23.366;2022-10-16T15:23:56;2.37;;;2.27;;
6529;SDS011;3298;42.688;23.366;2022-10-16T15:26:24;2.50;;;2.30;;
6529;SDS011;3298;42.688;23.366;2022-10-16T15:28:51;1.90;;;1.80;;
6529;SDS011;3298;42.688;23.366;2022-10-16T15:31:19;2.47;;;2.20;;
6529;SDS011;3298;42.688;23.366;2022-10-16T15:33:48;2.00;;;1.90;;
6529;SDS011;3298;42.688;23.366;2022-10-16T15:36:24;2.10;;;1.90;;